Terminal Aerodrome Forecast
Issued by NWS Wilmington, NC

Home | Current Version | Previous Version | Text Only | Print | Product List | Glossary On
Versions: 1 2 3 4 5 6 7 8 9 10 11 12 13 14 15 16 17 18 19 20 21 22 23 24 25 26 27 28 29 30 31
000
FTUS42 KILM 171100 CCB
TAFMYR
TAF COR
KMYR 171152Z 1712/1812 04008KT P6SM SCT010 SCT050 BKN120
     FM171900 10009KT P6SM VCSH SCT020 BKN040
     FM180000 05005KT P6SM SCT025 BKN060
     FM181000 01003KT 4SM BR SCT005 BKN012 BKN060=

USA.gov is the U.S. government's official web portal to all federal, state and local government web resources and services.